createdAt,value
2019-04-16T00:00:30.355Z,65.00
2019-04-16T00:03:02.514Z,65.50
2019-04-16T00:05:42.788Z,65.90
2019-04-16T00:08:31.443Z,66.70
2019-04-16T00:11:27.295Z,67.30
2019-04-16T00:14:08.550Z,67.60
2019-04-16T00:16:41.383Z,68.30
2019-04-16T00:19:13.700Z,68.40
2019-04-16T00:21:58.558Z,69.00
2019-04-16T00:24:36.176Z,69.10
2019-04-16T00:27:07.866Z,70.00
2019-04-16T00:29:39.940Z,70.70
2019-04-16T00:32:18.123Z,71.00
2019-04-16T00:34:49.933Z,71.50
2019-04-16T00:37:21.689Z,72.20
2019-04-16T00:39:56.033Z,72.60
2019-04-16T00:42:26.928Z,72.80
2019-04-16T00:44:58.718Z,73.30
2019-04-16T00:47:31.457Z,74.00
2019-04-16T00:50:03.287Z,74.50
2019-04-16T00:52:36.964Z,75.00
2019-04-16T00:55:08.420Z,75.20
2019-04-16T00:57:40.212Z,76.10
2019-04-16T01:00:13.360Z,76.30
2019-04-16T01:02:46.902Z,76.90
2019-04-16T01:05:18.510Z,77.40
2019-04-16T01:07:50.154Z,77.50
2019-04-16T01:10:21.982Z,77.90
2019-04-16T01:12:53.769Z,78.90
2019-04-16T01:15:25.800Z,79.80
2019-04-16T01:17:57.457Z,80.70
2019-04-16T01:20:29.240Z,81.70
2019-04-16T01:23:01.411Z,82.90
2019-04-16T01:25:33.148Z,84.10
2019-04-16T01:28:07.128Z,84.90
2019-04-16T01:31:06.937Z,87.10
2019-04-16T01:33:47.439Z,88.60
2019-04-16T01:36:47.179Z,90.20
2019-04-16T01:39:21.297Z,91.30
2019-04-16T01:41:53.405Z,92.30
2019-04-16T01:44:28.601Z,93.50
2019-04-16T01:47:03.385Z,94.60
2019-04-16T01:49:32.248Z,95.60
2019-04-16T01:52:04.016Z,96.70
2019-04-16T01:54:35.693Z,97.80
2019-04-16T01:57:07.457Z,98.50
2019-04-16T01:59:39.219Z,99.90
2019-04-16T02:02:14.562Z,99.90
2019-04-16T02:04:44.287Z,99.90
2019-04-16T02:07:16.029Z,99.90
2019-04-16T02:09:47.785Z,99.90
2019-04-16T02:12:19.608Z,99.90
2019-04-16T02:14:51.453Z,99.90
2019-04-16T02:17:26.670Z,99.90
2019-04-16T02:19:57.638Z,99.90
2019-04-16T02:22:29.295Z,99.90
2019-04-16T02:25:01.096Z,99.90
2019-04-16T02:27:32.787Z,99.90
2019-04-16T02:30:05.866Z,99.90
2019-04-16T02:32:37.734Z,99.90
2019-04-16T02:35:09.696Z,99.90
2019-04-16T02:37:41.544Z,99.90
2019-04-16T02:40:18.504Z,99.90
2019-04-16T02:42:47.567Z,99.90
2019-04-16T02:45:23.283Z,99.90
2019-04-16T02:47:52.565Z,99.90
2019-04-16T02:50:49.338Z,99.90
2019-04-16T02:53:38.813Z,99.90
2019-04-16T02:56:28.492Z,99.90
2019-04-16T02:59:12.969Z,99.90
2019-04-16T03:02:01.472Z,99.90
2019-04-16T03:04:38.073Z,99.90
2019-04-16T03:07:10.127Z,99.90
2019-04-16T03:09:42.179Z,99.90
2019-04-16T03:12:13.918Z,99.90
2019-04-16T03:14:46.029Z,99.90
2019-04-16T03:17:29.474Z,99.90
2019-04-16T03:20:02.754Z,99.90
2019-04-16T03:22:34.494Z,99.90
2019-04-16T03:25:12.333Z,99.90
2019-04-16T03:27:40.998Z,99.90
2019-04-16T03:30:12.706Z,99.90
2019-04-16T03:32:51.908Z,99.90
2019-04-16T03:35:26.595Z,99.90
2019-04-16T03:37:57.163Z,99.90
2019-04-16T03:40:30.029Z,99.90
2019-04-16T03:43:04.004Z,99.90
2019-04-16T03:45:37.561Z,99.90
2019-04-16T03:48:08.427Z,99.90
2019-04-16T03:50:40.094Z,99.90
2019-04-16T03:53:16.397Z,99.90
2019-04-16T03:55:45.394Z,99.90
2019-04-16T03:58:17.109Z,99.90
2019-04-16T04:00:48.775Z,99.90
2019-04-16T04:03:25.808Z,99.90
2019-04-16T04:05:57.196Z,99.90
2019-04-16T04:08:28.986Z,99.90
2019-04-16T04:11:00.836Z,99.90
2019-04-16T04:13:32.577Z,99.90
2019-04-16T04:16:04.269Z,99.90
2019-04-16T04:18:35.918Z,99.90
2019-04-16T04:21:07.682Z,99.90
2019-04-16T04:23:39.344Z,99.90
2019-04-16T04:26:12.043Z,99.90
2019-04-16T04:28:43.751Z,99.90
2019-04-16T04:31:15.627Z,99.90
2019-04-16T04:33:47.388Z,99.90
2019-04-16T04:36:22.606Z,99.90
2019-04-16T04:38:53.529Z,99.90
2019-04-16T04:41:25.572Z,99.90
2019-04-16T04:43:57.245Z,99.90
2019-04-16T04:46:29.708Z,99.20
2019-04-16T04:49:01.436Z,91.20
2019-04-16T04:51:33.315Z,86.50
2019-04-16T04:54:05.469Z,78.20
2019-04-16T04:56:38.182Z,72.20
2019-04-16T04:59:10.073Z,67.30
2019-04-16T05:01:42.705Z,64.20
2019-04-16T05:04:32.826Z,63.00
2019-04-16T05:07:06.457Z,58.90
2019-04-16T05:09:38.281Z,58.40
2019-04-16T05:12:10.352Z,57.60
2019-04-16T05:14:58.452Z,57.50
2019-04-16T05:17:30.222Z,56.70
2019-04-16T05:20:01.860Z,55.00
2019-04-16T05:22:33.745Z,54.10
2019-04-16T05:25:05.698Z,55.40
2019-04-16T05:27:40.223Z,55.50
2019-04-16T05:30:11.763Z,54.90
2019-04-16T05:32:43.574Z,54.60
2019-04-16T05:35:15.335Z,54.30
2019-04-16T05:37:48.531Z,54.90
2019-04-16T05:40:20.388Z,54.40
2019-04-16T05:42:55.830Z,53.60
2019-04-16T05:45:26.808Z,52.90
2019-04-16T05:47:58.744Z,52.00
2019-04-16T05:50:31.502Z,51.80
2019-04-16T05:53:05.523Z,50.00
2019-04-16T05:55:51.123Z,48.60
2019-04-16T05:58:22.975Z,49.90
2019-04-16T06:01:14.399Z,50.30
2019-04-16T06:03:46.338Z,48.60
2019-04-16T06:06:18.050Z,47.40
2019-04-16T06:08:49.870Z,47.60
2019-04-16T06:11:29.124Z,46.70
2019-04-16T06:14:16.757Z,44.80
2019-04-16T06:17:03.056Z,43.90
2019-04-16T06:19:46.447Z,43.90
2019-04-16T06:22:38.120Z,43.30
2019-04-16T06:25:35.072Z,45.50
2019-04-16T06:28:23.522Z,43.20
2019-04-16T06:31:05.277Z,43.30
2019-04-16T06:33:57.854Z,43.70
2019-04-16T06:36:46.206Z,46.10
2019-04-16T06:39:40.495Z,45.30
2019-04-16T06:42:33.965Z,45.20
2019-04-16T06:45:21.084Z,46.70
2019-04-16T06:48:00.827Z,46.00
2019-04-16T06:50:57.469Z,46.90
2019-04-16T06:53:38.459Z,46.60
2019-04-16T06:56:37.452Z,46.60
2019-04-16T06:59:32.755Z,45.10
2019-04-16T07:02:37.568Z,44.00
2019-04-16T07:05:32.995Z,43.70
2019-04-16T07:08:36.544Z,42.90
2019-04-16T07:10:59.353Z,41.20
2019-04-16T07:13:31.139Z,42.00
2019-04-16T07:16:03.817Z,44.10
2019-04-16T07:18:38.661Z,43.70
2019-04-16T07:21:09.503Z,44.40
2019-04-16T07:23:41.444Z,44.10
2019-04-16T07:26:14.785Z,44.50
2019-04-16T07:29:01.620Z,44.90
2019-04-16T07:31:43.034Z,44.90
2019-04-16T07:34:32.812Z,45.10
2019-04-16T07:37:23.820Z,45.00
2019-04-16T07:40:20.566Z,45.20
2019-04-16T07:43:10.798Z,45.40
2019-04-16T07:45:45.980Z,43.90
2019-04-16T07:48:26.634Z,44.20
2019-04-16T07:51:12.244Z,44.20
2019-04-16T07:54:03.049Z,44.30
2019-04-16T07:56:35.715Z,44.60
2019-04-16T07:59:07.704Z,45.20
2019-04-16T08:01:39.363Z,45.10
2019-04-16T08:04:11.120Z,44.50
2019-04-16T08:06:46.273Z,43.70
2019-04-16T08:09:16.157Z,44.30
2019-04-16T08:11:48.237Z,44.00
2019-04-16T08:14:20.039Z,43.40
2019-04-16T08:16:51.638Z,41.90
2019-04-16T08:19:36.183Z,43.60
2019-04-16T08:21:56.857Z,44.60
2019-04-16T08:24:33.203Z,45.40
2019-04-16T08:27:05.295Z,45.10
2019-04-16T08:29:37.118Z,44.70
2019-04-16T08:32:08.813Z,44.70
2019-04-16T08:34:41.558Z,44.60
2019-04-16T08:37:14.442Z,43.00
2019-04-16T08:39:46.214Z,42.70
2019-04-16T08:42:18.402Z,43.90
2019-04-16T08:44:50.227Z,43.80
2019-04-16T08:47:22.154Z,42.90
2019-04-16T08:49:54.881Z,43.00
2019-04-16T08:52:26.975Z,43.90
2019-04-16T08:54:58.771Z,44.30
2019-04-16T08:57:32.062Z,42.90
2019-04-16T09:00:04.856Z,42.10
2019-04-16T09:02:36.948Z,42.20
2019-04-16T09:05:11.418Z,42.40
2019-04-16T09:07:42.445Z,43.80
2019-04-16T09:10:23.316Z,43.10
2019-04-16T09:13:03.345Z,43.60
2019-04-16T09:15:30.448Z,43.20
2019-04-16T09:18:21.603Z,44.20
2019-04-16T09:20:53.452Z,44.00
2019-04-16T09:23:26.704Z,43.20
2019-04-16T09:26:22.619Z,42.10
2019-04-16T09:29:15.443Z,40.40
2019-04-16T09:32:28.186Z,41.70
2019-04-16T09:35:19.822Z,42.90
2019-04-16T09:38:21.855Z,41.60
2019-04-16T09:41:21.893Z,40.70
2019-04-16T09:43:57.214Z,41.90
2019-04-16T09:46:49.925Z,42.80
2019-04-16T09:49:04.614Z,41.80
2019-04-16T09:51:37.100Z,42.20
2019-04-16T09:54:12.313Z,42.30
2019-04-16T09:56:42.352Z,42.70
2019-04-16T09:59:39.734Z,43.00
2019-04-16T10:02:33.206Z,43.30
2019-04-16T10:05:06.937Z,44.30
2019-04-16T10:07:40.374Z,43.90
2019-04-16T10:10:12.622Z,43.70
2019-04-16T10:12:44.393Z,44.00
2019-04-16T10:15:16.625Z,44.10
2019-04-16T10:17:48.253Z,43.60
2019-04-16T10:20:20.119Z,43.60
2019-04-16T10:22:52.011Z,44.00
2019-04-16T10:25:23.930Z,43.90
2019-04-16T10:28:01.909Z,43.90
2019-04-16T10:30:41.595Z,44.20
2019-04-16T10:33:13.327Z,44.30
2019-04-16T10:35:45.077Z,43.40
2019-04-16T10:38:29.312Z,43.50
2019-04-16T10:41:06.882Z,42.60
2019-04-16T10:43:48.764Z,42.60
2019-04-16T10:46:38.463Z,43.40
2019-04-16T10:49:25.776Z,44.10
2019-04-16T10:52:15.361Z,44.70
2019-04-16T10:55:04.380Z,44.00
2019-04-16T10:57:54.994Z,44.10
2019-04-16T11:00:43.163Z,44.30
2019-04-16T11:03:19.187Z,43.10
2019-04-16T11:05:57.027Z,43.60
2019-04-16T11:08:27.919Z,43.30
2019-04-16T11:10:59.818Z,43.30
2019-04-16T11:13:41.358Z,43.10
2019-04-16T11:16:15.120Z,43.40
2019-04-16T11:18:47.285Z,43.40
2019-04-16T11:21:19.165Z,43.30
2019-04-16T11:23:51.169Z,43.10
2019-04-16T11:26:22.949Z,44.70
2019-04-16T11:28:54.990Z,45.50
2019-04-16T11:31:27.629Z,45.80
2019-04-16T11:33:59.616Z,45.50
2019-04-16T11:36:31.825Z,45.00
2019-04-16T11:39:04.421Z,44.90
2019-04-16T11:41:37.345Z,45.30
2019-04-16T11:44:15.850Z,45.30
2019-04-16T11:46:43.100Z,45.90
2019-04-16T11:49:14.867Z,45.70
2019-04-16T11:51:46.637Z,45.70
2019-04-16T11:54:19.324Z,46.30
2019-04-16T11:56:51.253Z,47.00
2019-04-16T11:59:22.980Z,48.10
2019-04-16T12:02:06.245Z,48.50
2019-04-16T12:04:50.913Z,47.90
2019-04-16T12:07:47.013Z,48.90
2019-04-16T12:10:46.256Z,50.00
2019-04-16T12:13:40.819Z,51.20
2019-04-16T12:16:21.202Z,52.00
2019-04-16T12:19:25.142Z,52.40
2019-04-16T12:22:05.696Z,52.00
2019-04-16T12:25:02.420Z,53.00
2019-04-16T12:28:01.913Z,53.30
2019-04-16T12:31:01.848Z,54.20
2019-04-16T12:33:37.940Z,54.30
2019-04-16T12:36:34.594Z,55.00
2019-04-16T12:39:26.192Z,56.40
2019-04-16T12:42:15.993Z,56.70
2019-04-16T12:45:10.066Z,57.60
2019-04-16T12:47:47.020Z,57.90
2019-04-16T12:50:35.478Z,58.60
2019-04-16T12:53:16.767Z,58.80
2019-04-16T12:56:08.831Z,59.10
2019-04-16T12:58:54.479Z,59.20
2019-04-16T13:01:45.188Z,59.90
2019-04-16T13:04:28.168Z,60.10
2019-04-16T13:07:18.903Z,60.70
2019-04-16T13:09:57.928Z,61.40
2019-04-16T13:12:37.481Z,62.00
2019-04-16T13:15:40.675Z,63.10
2019-04-16T13:18:16.993Z,65.60
2019-04-16T13:21:19.834Z,68.00
2019-04-16T13:24:00.296Z,70.90
2019-04-16T13:26:51.358Z,75.80
2019-04-16T13:29:29.191Z,82.20
2019-04-16T13:31:57.980Z,91.80
2019-04-16T13:34:30.062Z,99.90
2019-04-16T13:37:02.186Z,99.90
2019-04-16T13:39:43.123Z,99.90
2019-04-16T13:42:14.845Z,99.90
2019-04-16T13:44:50.056Z,99.90
2019-04-16T13:47:21.940Z,99.90
2019-04-16T13:50:05.840Z,99.90
2019-04-16T13:52:37.977Z,99.90
2019-04-16T13:55:41.661Z,99.90
2019-04-16T13:58:33.539Z,99.90
2019-04-16T14:01:15.772Z,99.90
2019-04-16T14:03:47.641Z,99.90
2019-04-16T14:06:19.421Z,99.90
2019-04-16T14:08:51.244Z,99.90
2019-04-16T14:11:23.541Z,99.90
2019-04-16T14:13:55.449Z,99.90
2019-04-16T14:16:27.420Z,99.90
2019-04-16T14:19:02.073Z,99.90
2019-04-16T14:21:32.516Z,99.90
2019-04-16T14:24:04.401Z,99.90
2019-04-16T14:26:36.245Z,99.90
2019-04-16T14:29:08.206Z,99.90
2019-04-16T14:31:40.106Z,99.90
2019-04-16T14:34:35.026Z,99.90
2019-04-16T14:40:33.854Z,99.90
2019-04-16T14:43:05.854Z,99.90
2019-04-16T14:45:57.577Z,99.90
2019-04-16T14:48:20.679Z,99.90
2019-04-16T14:50:52.511Z,99.90
2019-04-16T14:53:51.379Z,99.90
2019-04-16T14:56:30.000Z,99.90
2019-04-16T14:59:33.249Z,99.90
2019-04-16T15:02:18.543Z,99.90
2019-04-16T15:05:07.708Z,99.90
2019-04-16T15:07:47.046Z,99.90
2019-04-16T15:10:47.101Z,99.90
2019-04-16T15:13:36.945Z,99.90
2019-04-16T15:16:25.104Z,99.90
2019-04-16T15:19:21.938Z,99.90
2019-04-16T15:22:14.090Z,99.90
2019-04-16T15:24:52.308Z,99.90
2019-04-16T15:27:52.104Z,99.90
2019-04-16T15:30:45.683Z,99.90
2019-04-16T15:33:35.692Z,99.90
2019-04-16T15:36:18.463Z,99.90
2019-04-16T15:39:11.135Z,99.90
2019-04-16T15:42:04.708Z,99.90
2019-04-16T15:45:01.448Z,99.90
2019-04-16T15:48:00.274Z,99.90
2019-04-16T15:50:57.414Z,99.90
2019-04-16T15:53:43.907Z,99.90
2019-04-16T15:56:32.149Z,99.90
2019-04-16T15:59:13.445Z,99.90
2019-04-16T16:02:04.137Z,99.90
2019-04-16T16:04:41.731Z,99.90
2019-04-16T16:07:16.465Z,99.90
2019-04-16T16:10:12.715Z,99.90
2019-04-16T16:12:41.719Z,99.90
2019-04-16T16:15:13.809Z,99.90
2019-04-16T16:17:45.656Z,99.90
2019-04-16T16:20:18.614Z,99.90
2019-04-16T16:22:50.386Z,99.90
2019-04-16T16:25:22.211Z,99.90
2019-04-16T16:27:54.233Z,99.90
2019-04-16T16:30:26.122Z,99.90
2019-04-16T16:32:57.764Z,99.90
2019-04-16T16:35:29.754Z,99.90
2019-04-16T16:38:01.492Z,99.90
2019-04-16T16:40:33.321Z,99.90
2019-04-16T16:43:07.926Z,99.90
2019-04-16T16:46:16.136Z,99.90
2019-04-16T16:48:48.449Z,99.90
2019-04-16T16:51:31.528Z,99.90
2019-04-16T16:54:17.141Z,99.90
2019-04-16T16:57:03.504Z,99.90
2019-04-16T16:59:53.101Z,99.90
2019-04-16T17:02:31.110Z,99.90
2019-04-16T17:05:03.099Z,99.90
2019-04-16T17:07:35.110Z,99.90
2019-04-16T17:10:07.313Z,99.90
2019-04-16T17:12:39.304Z,99.90
2019-04-16T17:15:11.051Z,99.90
2019-04-16T17:17:42.825Z,99.90
2019-04-16T17:20:14.586Z,99.90
2019-04-16T17:22:46.451Z,99.90
2019-04-16T17:25:18.089Z,99.90
2019-04-16T17:27:51.578Z,99.90
2019-04-16T17:30:23.318Z,99.90
2019-04-16T17:32:58.956Z,99.90
2019-04-16T17:35:30.966Z,99.90
2019-04-16T17:38:03.826Z,99.90
2019-04-16T17:40:42.337Z,99.90
2019-04-16T17:43:19.747Z,99.90
2019-04-16T17:45:59.384Z,99.90
2019-04-16T17:48:50.188Z,99.90
2019-04-16T17:51:41.105Z,99.90
2019-04-16T17:54:20.966Z,99.90
2019-04-16T17:57:10.735Z,99.90
2019-04-16T18:00:07.365Z,99.90
2019-04-16T18:03:04.104Z,99.90
2019-04-16T18:05:46.803Z,99.90
2019-04-16T18:08:55.667Z,99.90
2019-04-16T18:11:34.403Z,99.90
2019-04-16T18:14:26.211Z,99.90
2019-04-16T18:17:26.724Z,99.90
2019-04-16T18:20:24.427Z,99.90
2019-04-16T18:23:11.847Z,99.90
2019-04-16T18:26:09.302Z,99.90
2019-04-16T18:28:54.373Z,99.90
2019-04-16T18:32:00.375Z,99.90
2019-04-16T18:35:01.079Z,99.90
2019-04-16T18:37:55.160Z,99.90
2019-04-16T18:40:48.930Z,99.90
2019-04-16T18:43:45.087Z,99.90
2019-04-16T18:46:39.050Z,99.90
2019-04-16T18:49:14.397Z,99.90
2019-04-16T18:51:46.823Z,99.90
2019-04-16T18:54:18.583Z,99.90
2019-04-16T18:56:50.483Z,99.90
2019-04-16T18:59:22.232Z,99.90
2019-04-16T19:01:59.742Z,99.90
2019-04-16T19:04:32.639Z,99.90
2019-04-16T19:07:04.738Z,99.90
2019-04-16T19:09:36.523Z,99.90
2019-04-16T19:12:08.373Z,99.90
2019-04-16T19:14:40.166Z,99.90
2019-04-16T19:17:12.143Z,99.90
2019-04-16T19:19:45.460Z,99.90
2019-04-16T19:22:17.572Z,99.90
2019-04-16T19:24:49.276Z,99.90
2019-04-16T19:27:21.090Z,99.90
2019-04-16T19:29:52.994Z,99.90
2019-04-16T19:32:27.511Z,99.90
2019-04-16T19:35:09.422Z,99.90
2019-04-16T19:37:33.390Z,99.90
2019-04-16T19:40:05.272Z,99.90
2019-04-16T19:42:37.373Z,99.90
2019-04-16T19:45:11.992Z,99.90
2019-04-16T19:47:43.921Z,99.90
2019-04-16T19:50:15.672Z,99.90
2019-04-16T19:52:47.431Z,99.90
2019-04-16T19:55:19.163Z,99.90
2019-04-16T19:57:50.975Z,99.90
2019-04-16T20:00:23.195Z,99.90
2019-04-16T20:02:55.093Z,99.90
2019-04-16T20:05:28.956Z,99.90
2019-04-16T20:08:00.375Z,99.90
2019-04-16T20:10:32.253Z,99.90
2019-04-16T20:13:04.195Z,99.90
2019-04-16T20:15:35.884Z,99.90
2019-04-16T20:18:07.817Z,99.90
2019-04-16T20:20:39.516Z,99.90
2019-04-16T20:23:11.248Z,99.90
2019-04-16T20:25:44.143Z,99.90
2019-04-16T20:28:16.419Z,99.90
2019-04-16T20:30:48.296Z,99.90
2019-04-16T20:33:20.090Z,99.90
2019-04-16T20:35:51.933Z,99.90
2019-04-16T20:38:29.063Z,99.90
2019-04-16T20:40:57.563Z,99.90
2019-04-16T20:43:29.380Z,99.90
2019-04-16T20:46:01.338Z,99.90
2019-04-16T20:48:33.224Z,99.90
2019-04-16T20:51:05.042Z,99.90
2019-04-16T20:53:37.975Z,99.90
2019-04-16T20:56:10.905Z,99.90
2019-04-16T20:58:42.767Z,99.90
2019-04-16T21:01:15.583Z,99.90
2019-04-16T21:04:04.729Z,99.90
2019-04-16T21:06:30.419Z,99.90
2019-04-16T21:09:02.671Z,99.90
2019-04-16T21:11:40.494Z,99.90
2019-04-16T21:14:09.409Z,99.90
2019-04-16T21:16:41.048Z,99.90
2019-04-16T21:19:22.913Z,99.90
2019-04-16T21:21:46.326Z,99.90
2019-04-16T21:24:18.029Z,99.90
2019-04-16T21:26:51.267Z,99.90
2019-04-16T21:29:27.689Z,99.90
2019-04-16T21:32:03.134Z,99.90
2019-04-16T21:34:41.213Z,99.90
2019-04-16T21:37:32.068Z,99.90
2019-04-16T21:40:05.003Z,99.90
2019-04-16T21:42:36.607Z,99.90
2019-04-16T21:45:08.974Z,99.90
2019-04-16T21:47:40.920Z,99.90
2019-04-16T21:50:16.032Z,99.90
2019-04-16T21:52:46.055Z,99.90
2019-04-16T21:55:17.893Z,99.90
2019-04-16T21:57:49.644Z,99.90
2019-04-16T22:00:44.169Z,99.90
2019-04-16T22:03:17.614Z,99.90
2019-04-16T22:05:49.429Z,99.90
2019-04-16T22:08:21.315Z,99.90
2019-04-16T22:10:53.075Z,99.90
2019-04-16T22:13:24.860Z,99.90
2019-04-16T22:15:58.067Z,99.90
2019-04-16T22:18:30.137Z,99.90
2019-04-16T22:21:02.038Z,99.90
2019-04-16T22:23:33.699Z,99.90
2019-04-16T22:26:09.565Z,99.90
2019-04-16T22:28:44.196Z,99.90
2019-04-16T22:31:12.275Z,99.90
2019-04-16T22:33:43.855Z,99.90
2019-04-16T22:36:15.682Z,99.90
2019-04-16T22:38:50.425Z,99.90
2019-04-16T22:41:40.065Z,99.90
2019-04-16T22:44:28.416Z,99.90
2019-04-16T22:47:11.031Z,99.90
2019-04-16T22:49:42.739Z,99.90
2019-04-16T22:52:14.587Z,99.90
2019-04-16T22:54:46.248Z,99.90
2019-04-16T22:57:18.411Z,99.90
2019-04-16T22:59:50.275Z,99.90
2019-04-16T23:02:25.120Z,99.90
2019-04-16T23:04:58.299Z,99.90
2019-04-16T23:07:30.259Z,99.90
2019-04-16T23:10:02.061Z,99.90
2019-04-16T23:12:34.906Z,99.90
2019-04-16T23:15:08.276Z,99.90
2019-04-16T23:17:42.861Z,99.90
2019-04-16T23:20:28.178Z,99.90
2019-04-16T23:22:47.661Z,99.90
2019-04-16T23:25:19.504Z,99.90
2019-04-16T23:27:51.393Z,99.90
2019-04-16T23:30:23.155Z,99.90
2019-04-16T23:32:58.974Z,99.90
2019-04-16T23:35:28.491Z,99.90
2019-04-16T23:38:01.045Z,99.90
2019-04-16T23:40:33.000Z,99.90
2019-04-16T23:43:32.872Z,99.90
2019-04-16T23:46:23.279Z,99.90
2019-04-16T23:49:20.055Z,99.90
2019-04-16T23:52:07.735Z,99.90
2019-04-16T23:54:58.439Z,99.90
2019-04-16T23:57:42.067Z,99.90
